Stroh, Tim
United StatesManBorn 19621996 – 2022Runner id 64739
Events
120
1996 – 2022
Best pace
12.193
km/h · 2000
Best finish
1st
of 74 · 2013
Distance raced
11,541
km · splits not double-counted
Pace over time
km/h · higher is faster
Pace over time: 120 races from 1996 to 2022, ranging from 4.62 to 13.01 kilometres per hour, where higher is faster. A second, age-graded series is drawn above it; the gap between the two is the age credit.
- Actual pace
- Age-graded pace
Results
| Date | Event | Distance | Result | Pace km/h | Placing |
|---|---|---|---|---|---|
| 1996-07-27 | White River 50 Mile Trail RunUnited States | 47.6mi | 9:28:21 h | 8.087 | 15/61 |
| 1996-09-28 | Cle Elum Ridge 50kUnited States | 50km | 6:01:45 h | 8.293 | 12/79 |
| 1998-03-21 | Chuckanut 50KUnited States | 50km | 5:35:35 h | 8.940 | 18/69 |
| 1998-06-06 | 50mi | 8:04:50 h | 9.958 | 12/61 | |
| 1998-09-05 | 100mi | 26:10:26 h | 6.149 | 3/23 | |
| 1998-10-03 | 100mi | 34:50:00 h | 4.620 | 2/2 | |
| 1998-11-14 | Ron Herzog 50KUnited States | 50km | 5:12:00 h | 9.615 | 7/27 |
| 1999-04-24 | Sybil Ludington 50 km RunUnited States | 50km | 4:11:40 h | 11.921 | 3/43 |
| 1999-07-17 | 100mi | 22:35:22 h | 7.124 | 23/109 | |
| 1999-11-06 | Watery Hill Six Hour Trail RunUnited States | 6h | 62.105 km | 10.351 | 4/33 |
| 1999-11-27 | 50mi | 7:09:31 h | 11.241 | 7/21 | |
| 2000-01-09 | Recover from the Holidays 50KUnited States | 50km | 4:06:02 h | 12.193 | 2/12 |
| 2000-04-16 | 50km | 6:48:00 h | 7.353 | 10/17 | |
| 2000-05-13 | 100mi | 28:29:00 h | 5.650 | 11/61 | |
| 2001-01-06 | Phoenix National Trail 50 Mile Endurance RunUnited States | 50mi | 9:53:49 h | 8.131 | 17/45 |
| 2001-01-27 | 50km | 5:20:44 h | 9.354 | 25/140 | |
| 2001-03-03 | 50mi | 8:17:40 h | 9.701 | 6/22 | |
| 2002-01-05 | Atlanta Fat Ass 50KUnited States | 50km | 4:49:33 h | 10.361 | 15/29 |
| 2002-01-26 | 50km | 5:47:59 h | 8.621 | 48/157 | |
| 2002-02-16 | 50km | 5:09:28 h | 9.694 | 13/108 | |
| 2002-03-02 | 50mi | 8:11:45 h | 9.818 | 6/15 | |
| 2002-03-30 | Oak Mountain 50km RaceUnited States | 33mi | 5:31:54 h | 9.601 | 13/50 |
| 2002-04-20 | 50mi | 11:02:05 h | 7.292 | 12/16 | |
| 2002-06-29 | Western States 100 Mile Endurance RunUnited States | 100mi | 26:34:56 h | 6.054 | 122/255 |
| 2003-01-04 | 50km | 4:24:00 h | 11.364 | 4/32 | |
| 2003-01-25 | 50km | 5:00:23 h | 9.987 | 25/205 | |
| 2003-03-01 | 50mi | 7:39:02 h | 10.518 | 6/35 | |
| 2003-04-26 | Zane Grey Highline Trail 50 MileUnited States | 50mi | 11:50:52 h | 6.792 | 43/108 |
| 2003-08-02 | Hot to Trot 8 Hours RunUnited States | 8h | 65.854 km | 8.232 | 7/17 |
| 2003-12-31 | 50km | 4:27:40 h | 11.208 | 4/12 | |
| 2004-01-03 | 50km | 4:20:54 h | 11.499 | 3/21 | |
| 2004-01-24 | 50km | 5:25:04 h | 9.229 | 45/265 | |
| 2004-03-06 | 50mi | 8:06:17 h | 9.928 | 5/33 | |
| 2004-03-20 | 33mi | 5:46:00 h | 9.210 | 14/72 | |
| 2004-05-08 | 100mi | 24:12:54 h | 6.646 | 9/88 | |
| 2004-08-07 | Hot to Trot 8 Hours RunUnited States | 8h | 81.835 km | 10.229 | 2/22 |
| 2004-09-11 | 100mi | 28:26:00 h | 5.660 | 4/6 | |
| 2004-11-20 | 50km | 5:10:16 h | 9.669 | 16/77 | |
| 2005-01-08 | Atlanta Fat Ass 50KUnited States | 50km | 4:25:20 h | 11.307 | 4/38 |
| 2005-01-29 | 50km | 4:56:32 h | 10.117 | 14/224 | |
| 2005-03-26 | 33mi | 5:12:27 h | 10.198 | 7/77 | |
| 2005-04-03 | Palouse 100K Relay And SoloUnited States | 100km | 9:50:08 h | 10.167 | 2/9 |
| 2005-07-16 | Midnight Mountain 50KUnited States | 50km | 7:57:23 h | 6.284 | 22/50 |
| 2005-10-01 | Baker Lake 50K Ultra Trail RunUnited States | 50km | 5:20:50 h | 9.351 | 18/101 |
| 2006-05-20 | Watershed Preserve 12 Hr Trail RaceUnited States | 12h | 86.502 km | 7.209 | 10/30 |
| 2006-07-29 | 50mi | 8:46:59 h | 9.162 | 31/124 | |
| 2006-09-09 | 100mi | 26:59:40 h | 5.962 | 1/7 | |
| 2006-10-07 | Baker Lake 50K Ultra Trail RunUnited States | 50km | 5:12:28 h | 9.601 | 17/113 |
| 2006-11-11 | Ron Herzog 50KUnited States | 50km | 5:31:13 h | 9.058 | 13/32 |
| 2007-01-13 | Bridle Trails Winter Running FestivalUnited States | 50km | 4:57:25 h | 10.087 | 15/44 |
| 2007-03-17 | Chuckanut 50KUnited States | 50km | 5:13:47 h | 9.561 | 42/260 |
| 2007-04-22 | Spokane River Run 50KUnited States | 50km | 4:30:27 h | 11.093 | 6/38 |
| 2007-04-28 | Capitol Peak 55KUnited States | 55km | 5:55:41 h | 9.278 | 3/30 |
| 2007-05-19 | Watershed Preserve 12 Hr Trail RaceUnited States | 12h | 113.072 km | 9.423 | 5/56 |
| 2007-06-02 | Blanchard Mountain Trail UltraUnited States | 50km | 5:36:00 h | 8.929 | 2/15 |
| 2007-07-28 | 50mi | 8:44:28 h | 9.206 | 27/144 | |
| 2007-09-28 | 100mi | 26:44:00 h | 6.020 | 12/62 | |
| 2008-02-16 | 50km | 5:55:46 h | 8.432 | 18/59 | |
| 2008-03-29 | 24 Hours of UtahUnited States | 24h | 164.635 km | 6.860 | 1/31 |
| 2008-05-17 | Watershed Preserve 12 Hr Trail RaceUnited States | 12h | 106.120 km | 8.843 | 2/53 |
| 2008-09-13 | Plain 100 Mile Endurance RunUnited States | 100mi | 27:49:34 h | 5.784 | 2/14 |
| 2008-10-19 | 50km | 4:42:00 h | 10.638 | 2/19 | |
| 2008-11-01 | Ron Herzog 50KUnited States | 50km | 4:31:00 h | 11.070 | 4/30 |
| 2009-03-21 | Oak Mountain 50km RaceUnited States | 33mi | 5:24:00 h | 9.835 | 11/117 |
| 2009-05-16 | Watershed Preserve 12 Hr Trail RaceUnited States | 12h | 113.619 km | 9.468 | 3/66 |
| 2009-06-20 | The 20th Century 100K Trail RunUnited States | 100km | 9:35:27 h | 10.427 | 3/14 |
| 2009-08-29 | 100mi | 21:44:03 h | 7.405 | 7/96 | |
| 2009-11-07 | Ron Herzog 50KUnited States | 50km | 5:14:59 h | 9.524 | 17/31 |
| 2010-01-09 | Bridle Trails Winter Running FestivalUnited States | 50km | 5:12:30 h | 9.600 | 26/70 |
| 2010-01-23 | Pigtails Run 50KUnited States | 50km | 4:12:05 h | 11.901 | 4/80 |
| 2010-02-10 | Woolley Trail Runs 50kUnited States | 50km | 4:16:35 h | 11.692 | 2/18 |
| 2010-04-09 | 100mi | 19:49:00 h | 8.121 | 1/10 | |
| 2010-05-15 | 12h | 69.201 km | 5.767 | 52/80 | |
| 2010-07-09 | 100mi | 34:17:00 h | 4.694 | 22/100 | |
| 2010-07-30 | 100mi | 27:39:00 h | 5.820 | 4/20 | |
| 2010-09-11 | 100mi | 27:08:00 h | 5.931 | 4/11 | |
| 2010-11-06 | Ron Herzog 50KUnited States | 50km | 5:23:42 h | 9.268 | 6/35 |
| 2011-01-22 | Pigtails Run 50KUnited States | 50km | 4:36:10 h | 10.863 | 13/84 |
| 2011-02-19 | 50km | 4:14:00 h | 11.811 | 2/25 | |
| 2011-04-16 | 100km | 12:01:00 h | 8.322 | 1/14 | |
| 2011-05-07 | 50km | 6:32:45 h | 7.638 | 10/47 | |
| 2011-05-14 | 12h | 119.405 km | 9.950 | 1/68 | |
| 2011-06-12 | 50km | 5:38:17 h | 8.868 | 9/70 | |
| 2011-09-10 | 100mi | 27:25:00 h | 5.870 | 2/11 | |
| 2012-03-25 | 50km | 4:37:26 h | 10.813 | 22/211 | |
| 2012-04-21 | 100mi | 20:30:00 h | 7.850 | 4/17 | |
| 2012-05-11 | 100mi | 24:53:40 h | 6.465 | 17/59 | |
| 2012-05-24 | Pigtails Challenge 200 MileUnited States | 200mi | 43:35:00 h | 7.385 | 1/9 |
| 2012-06-23 | 50km | 4:38:39 h | 10.766 | 6/43 | |
| 2012-09-08 | 100mi | 30:07:00 h | 5.344 | 7/10 | |
| 2013-03-23 | 12h | 118.447 km | 9.871 | 1/74 | |
| 2013-04-13 | Lumberjack Endurance 100 Mile RunUnited States | 100mi | 19:55:00 h | 8.080 | 1/13 |
| 2013-05-25 | 100mi | 16:58:00 h | 9.485 | 1/36 | |
| 2013-06-14 | 100mi | 26:03:06 h | 6.178 | 30/125 | |
| 2013-07-27 | 50mi | 8:56:22 h | 9.001 | 28/286 | |
| 2013-09-06 | 100mi | 28:30:18 h | 5.646 | 50/205 | |
| 2013-09-14 | 100mi | 29:41:00 h | 5.422 | 2/13 | |
| 2013-11-02 | 12h | 68.332 km | 5.694 | 9/16 | |
| 2014-03-30 | Palouse 100K Relay And SoloUnited States | 100km | 10:27:16 h | 9.565 | 1/5 |
| 2014-04-12 | Lumberjack Endurance 100 Mile RunUnited States | 100mi | 20:45:49 h | 7.751 | 2/16 |
| 2014-07-19 | 50mi | 11:39:00 h | 6.907 | 9/23 | |
| 2014-08-23 | Cascade Crest Classic 100 MileUnited States | 100mi | 22:10:22 h | 7.258 | 14/105 |
| 2014-09-13 | 100mi | 25:59:00 h | 6.194 | 3/15 | |
| 2015-08-29 | 100mi | 24:54:44 h | 6.460 | 22/99 | |
| 2015-09-26 | 100mi | 19:23:11 h | 8.301 | 7/78 | |
| 2015-11-14 | 50km | 6:53:32 h | 7.255 | 6/18 | |
| 2016-08-06 | 33.4mi | 6:40:46 h | 8.047 | 4/11 | |
| 2016-08-28 | 50km | 5:10:22 h | 9.666 | 4/19 | |
| 2016-09-17 | 100mi | 34:05:00 h | 4.722 | 11/13 | |
| 2017-07-22 | 50km | 9:10:00 h | 5.455 | 24/57 | |
| 2017-08-26 | 100mi | 26:45:29 h | 6.014 | 24/110 | |
| 2018-06-30 | 50km | 7:42:00 h | 6.494 | 15/56 | |
| 2018-08-25 | 100mi | 23:35:46 h | 6.820 | 20/147 | |
| 2018-09-15 | 100mi | 27:01:30 h | 5.955 | 9/51 | |
| 2019-03-23 | Dizzy Daze 12 hoursUnited States | 12h | 82.398 km | 6.867 | 13/59 |
| 2019-10-12 | 100mi | 21:07:19 h | 7.619 | 16/123 | |
| 2021-07-24 | 50km | 8:57:00 h | 5.587 | 23/57 | |
| 2021-09-11 | 100mi | 30:42:54 h | 5.240 | 11/35 | |
| 2022-04-02 | 50mi | 10:10:55 h | 7.903 | 25/67 | |
| 2022-07-29 | 100mi | 33:14:23 h | 4.842 | 44/73 |